Time;durP1;ratioP1;P1;durP2;ratioP2;P2;SDS_P1;SDS_P2;PMS_P1;PMS_P2;Temp;Humidity;BMP_temperature;BMP_pressure;BME280_temperature;BME280_humidity;BME280_pressure;Samples;Min_cycle;Max_cycle;Signal;HPM_P1;HPM_P2
2021/01/10 00:00:17;;;;;;;1.27;1.23;;;5.40;99.90;;;;;;5040780;28;20193;-78
2021/01/10 00:02:47;;;;;;;2.33;2.13;;;5.50;99.90;;;;;;5039950;28;20177;-78
2021/01/10 00:05:18;;;;;;;1.57;1.50;;;5.50;99.90;;;;;;5039990;28;20654;-78
2021/01/10 00:07:44;;;;;;;2.93;2.20;;;5.30;99.90;;;;;;5058632;28;20152;-78
2021/01/10 00:10:11;;;;;;;7.13;2.73;;;5.30;99.90;;;;;;5040234;28;20172;-78
2021/01/10 00:12:37;;;;;;;3.13;2.93;;;5.30;99.90;;;;;;5040248;28;20172;-78
2021/01/10 00:15:04;;;;;;;2.97;2.77;;;5.50;99.90;;;;;;5040135;28;20286;-78
2021/01/10 00:17:30;;;;;;;3.47;3.17;;;5.40;99.90;;;;;;5040540;28;20198;-78
2021/01/10 00:19:56;;;;;;;2.07;1.90;;;5.30;99.90;;;;;;5040543;28;20194;-78
2021/01/10 00:22:24;;;;;;;2.53;2.33;;;5.10;99.90;;;;;;5041150;28;20178;-79
2021/01/10 00:24:50;;;;;;;2.07;1.87;;;5.20;99.90;;;;;;5040431;28;20193;-78
2021/01/10 00:27:18;;;;;;;2.07;1.97;;;5.30;99.90;;;;;;5058826;28;20290;-79
2021/01/10 00:29:46;;;;;;;3.33;3.03;;;5.20;99.90;;;;;;5040403;28;20179;-79
2021/01/10 00:32:12;;;;;;;3.00;2.80;;;5.30;99.90;;;;;;5057987;28;20191;-79
2021/01/10 00:34:38;;;;;;;2.70;2.57;;;5.20;99.90;;;;;;5056032;28;20550;-78
2021/01/10 00:37:08;;;;;;;2.23;1.97;;;5.30;99.90;;;;;;5056176;28;20171;-78
2021/01/10 00:39:34;;;;;;;3.20;2.97;;;5.30;99.90;;;;;;5037532;28;20275;-78
2021/01/10 00:42:04;;;;;;;3.70;3.23;;;5.10;99.90;;;;;;5037657;28;20175;-78
2021/01/10 00:44:29;;;;;;;2.77;1.57;;;5.20;99.90;;;;;;5038194;28;20279;-78
2021/01/10 00:46:55;;;;;;;2.53;2.43;;;5.10;99.90;;;;;;5055435;28;20192;-76
2021/01/10 00:49:21;;;;;;;2.50;1.97;;;5.10;99.90;;;;;;5055994;28;20597;-78
2021/01/10 00:51:49;;;;;;;1.93;1.80;;;5.20;99.90;;;;;;5038265;28;20238;-78
2021/01/10 00:54:15;;;;;;;3.77;1.30;;;5.20;99.90;;;;;;5055607;28;20198;-79
2021/01/10 00:56:40;;;;;;;7.37;2.63;;;5.30;99.90;;;;;;5055876;28;20215;-78
2021/01/10 00:59:06;;;;;;;2.80;2.60;;;5.20;99.90;;;;;;5056346;28;20174;-78
2021/01/10 01:01:32;;;;;;;2.13;2.00;;;5.30;99.90;;;;;;5037828;28;20171;-77
2021/01/10 01:03:57;;;;;;;2.53;1.70;;;5.30;99.90;;;;;;5037957;28;20714;-78
2021/01/10 01:06:23;;;;;;;2.10;1.93;;;5.30;99.90;;;;;;5056702;28;20635;-78
2021/01/10 01:08:48;;;;;;;1.97;1.83;;;5.30;99.90;;;;;;5038346;28;20178;-78
2021/01/10 01:11:14;;;;;;;1.27;1.27;;;5.20;99.90;;;;;;5037895;28;20263;-78
2021/01/10 01:13:39;;;;;;;2.33;2.20;;;5.30;99.90;;;;;;5038133;28;20550;-78
2021/01/10 01:16:08;;;;;;;2.17;1.87;;;5.20;99.90;;;;;;5038907;28;20172;-78
2021/01/10 01:18:35;;;;;;;2.27;2.07;;;5.20;99.90;;;;;;5038150;28;20700;-78
2021/01/10 01:21:01;;;;;;;1.90;1.70;;;5.10;99.90;;;;;;5056218;28;20191;-78
2021/01/10 01:23:26;;;;;;;3.10;2.40;;;5.10;99.90;;;;;;5056290;28;20631;-78
2021/01/10 01:25:52;;;;;;;2.50;2.27;;;5.20;99.90;;;;;;5056227;28;20210;-78
2021/01/10 01:28:17;;;;;;;2.30;2.03;;;5.30;99.90;;;;;;5038409;28;20277;-78
2021/01/10 01:30:43;;;;;;;2.63;2.43;;;5.20;99.90;;;;;;5056658;28;20190;-78
2021/01/10 01:33:08;;;;;;;3.37;2.57;;;5.20;99.90;;;;;;5056759;28;20654;-78
2021/01/10 01:35:34;;;;;;;3.13;2.90;;;5.10;99.90;;;;;;5056958;28;20180;-78
2021/01/10 01:37:59;;;;;;;3.77;3.43;;;5.10;99.90;;;;;;5038620;28;20179;-78
2021/01/10 01:40:25;;;;;;;4.03;3.83;;;5.10;99.90;;;;;;5057327;28;20194;-78
2021/01/10 01:42:50;;;;;;;1.57;1.50;;;5.00;99.90;;;;;;5038925;28;20176;-78
2021/01/10 01:45:16;;;;;;;2.77;2.67;;;4.90;99.90;;;;;;5057131;28;20192;-78
2021/01/10 01:47:42;;;;;;;3.40;2.13;;;4.90;99.90;;;;;;5039154;28;20180;-78
2021/01/10 01:50:08;;;;;;;3.93;3.53;;;5.00;99.90;;;;;;5039106;28;20170;-78
2021/01/10 01:52:34;;;;;;;3.40;3.20;;;5.00;99.90;;;;;;5057606;28;20246;-78
2021/01/10 01:55:00;;;;;;;1.30;1.20;;;5.10;99.90;;;;;;5056988;28;20266;-78
2021/01/10 01:57:26;;;;;;;3.67;2.27;;;5.00;99.90;;;;;;5039315;28;20592;-78
2021/01/10 01:59:51;;;;;;;1.30;1.20;;;4.80;99.90;;;;;;5039472;28;20188;-78
2021/01/10 02:02:17;;;;;;;3.67;2.87;;;4.80;99.90;;;;;;5057447;28;20162;-78
2021/01/10 02:05:01;;;;;;;3.00;2.80;;;4.80;99.90;;;;;;5039429;28;20184;-78
2021/01/10 02:07:57;;;;;;;3.90;3.60;;;4.80;99.90;;;;;;5039563;28;20157;-79
2021/01/10 02:10:27;;;;;;;2.93;2.07;;;5.00;99.90;;;;;;5056654;28;20160;-78
2021/01/10 02:12:59;;;;;;;2.93;2.67;;;5.00;99.90;;;;;;5054547;28;20171;-78
2021/01/10 02:15:27;;;;;;;1.80;1.67;;;5.10;99.90;;;;;;5037042;28;20555;-78
2021/01/10 02:17:54;;;;;;;2.50;2.30;;;5.10;99.90;;;;;;5038365;28;20174;-78
2021/01/10 02:20:30;;;;;;;3.20;3.00;;;5.00;99.90;;;;;;5058885;28;20188;-78
2021/01/10 02:23:15;;;;;;;4.63;3.37;;;5.00;99.90;;;;;;5040454;28;20206;-78
2021/01/10 02:25:43;;;;;;;2.87;2.67;;;5.10;99.90;;;;;;5041235;28;20570;-78
2021/01/10 02:28:09;;;;;;;4.33;4.03;;;5.10;99.90;;;;;;5058543;28;20191;-78
2021/01/10 02:30:38;;;;;;;2.57;2.47;;;5.10;99.90;;;;;;5058630;28;20172;-78
2021/01/10 02:33:08;;;;;;;3.70;3.43;;;5.10;99.90;;;;;;5057815;28;20201;-78
2021/01/10 02:35:36;;;;;;;5.70;3.77;;;5.10;99.90;;;;;;5040467;28;20168;-78
2021/01/10 02:38:26;;;;;;;8.70;3.97;;;5.10;99.90;;;;;;5040619;28;20190;-78
2021/01/10 02:41:04;;;;;;;3.10;2.73;;;5.10;99.90;;;;;;5040150;28;20587;-78
2021/01/10 02:43:33;;;;;;;5.73;2.53;;;5.10;99.90;;;;;;5058509;28;20186;-78
2021/01/10 02:46:03;;;;;;;3.47;3.17;;;5.10;99.90;;;;;;5040153;28;20186;-78
2021/01/10 02:48:29;;;;;;;7.13;3.20;;;5.00;99.90;;;;;;5059037;28;20160;-78
2021/01/10 02:50:54;;;;;;;4.27;3.53;;;5.00;99.90;;;;;;5040201;28;20569;-78
2021/01/10 02:53:20;;;;;;;6.60;3.57;;;5.00;99.90;;;;;;5040657;28;20222;-78
2021/01/10 02:55:45;;;;;;;3.20;3.00;;;5.00;99.90;;;;;;5040482;28;20171;-78
2021/01/10 02:58:18;;;;;;;2.60;2.40;;;5.00;99.90;;;;;;5040650;28;20172;-78
2021/01/10 03:00:45;;;;;;;3.43;3.13;;;5.00;99.90;;;;;;5040459;28;20600;-78
2021/01/10 03:03:13;;;;;;;2.00;1.90;;;4.90;99.90;;;;;;5058983;28;20173;-78
2021/01/10 03:05:39;;;;;;;5.27;2.87;;;5.00;99.90;;;;;;5040904;28;20172;-78
2021/01/10 03:08:05;;;;;;;2.03;1.93;;;5.00;99.90;;;;;;5058903;28;20188;-78
2021/01/10 03:10:31;;;;;;;3.33;3.13;;;4.90;99.90;;;;;;5040396;28;20645;-78
2021/01/10 03:12:56;;;;;;;1.97;1.77;;;5.00;99.90;;;;;;5040875;28;20704;-78
2021/01/10 03:15:22;;;;;;;2.50;2.30;;;5.00;99.90;;;;;;5040822;28;20266;-78
2021/01/10 03:17:51;;;;;;;2.47;2.17;;;5.10;99.90;;;;;;5041173;28;20194;-79
2021/01/10 03:20:18;;;;;;;3.20;2.07;;;5.10;99.90;;;;;;5041205;28;20267;-78
2021/01/10 03:22:46;;;;;;;3.03;2.73;;;5.00;99.90;;;;;;5058948;28;20176;-78
2021/01/10 03:25:13;;;;;;;3.30;2.43;;;4.90;99.90;;;;;;5058549;28;20218;-78
2021/01/10 03:27:39;;;;;;;5.47;5.07;;;4.90;99.90;;;;;;5040977;28;20171;-78
2021/01/10 03:30:07;;;;;;;8.50;3.00;;;4.90;99.90;;;;;;5058244;28;20203;-78
2021/01/10 03:32:33;;;;;;;3.50;3.27;;;5.00;99.90;;;;;;5059150;28;20214;-78
2021/01/10 03:34:59;;;;;;;3.93;3.53;;;4.90;99.90;;;;;;5041285;28;20198;-78
2021/01/10 03:37:24;;;;;;;1.30;1.13;;;5.00;99.90;;;;;;5041532;28;20641;-78
2021/01/10 03:39:50;;;;;;;2.53;2.27;;;4.90;99.90;;;;;;5041512;28;20245;-78
2021/01/10 03:42:16;;;;;;;4.13;2.83;;;4.90;99.90;;;;;;5042052;28;20168;-78
2021/01/10 03:44:41;;;;;;;3.47;2.83;;;4.80;99.90;;;;;;5041784;28;20528;-79
2021/01/10 03:47:07;;;;;;;3.23;3.00;;;4.90;99.90;;;;;;5041666;28;20221;-79
2021/01/10 03:49:32;;;;;;;2.90;2.50;;;4.80;99.90;;;;;;5040253;28;20176;-78
2021/01/10 03:51:58;;;;;;;4.90;3.53;;;4.90;99.90;;;;;;5057064;28;20171;-78
2021/01/10 03:54:23;;;;;;;3.37;2.43;;;4.90;99.90;;;;;;5038626;28;20199;-78
2021/01/10 03:56:49;;;;;;;1.90;1.80;;;4.90;99.90;;;;;;5038703;28;20532;-78
2021/01/10 03:59:15;;;;;;;2.17;2.07;;;4.90;99.90;;;;;;5056458;28;20203;-78
2021/01/10 04:01:40;;;;;;;3.37;2.70;;;5.00;99.90;;;;;;5038988;28;20192;-79
2021/01/10 04:04:06;;;;;;;9.17;3.70;;;5.10;99.90;;;;;;5038792;28;20191;-78
2021/01/10 04:06:31;;;;;;;4.30;3.90;;;5.10;99.90;;;;;;5038281;28;20174;-78
2021/01/10 04:08:57;;;;;;;5.93;3.30;;;5.00;99.90;;;;;;5057209;28;20180;-78
2021/01/10 04:11:23;;;;;;;3.33;3.07;;;5.00;99.90;;;;;;5056938;28;20228;-78
2021/01/10 04:13:48;;;;;;;2.87;2.63;;;5.10;99.90;;;;;;5056542;28;20195;-78
2021/01/10 04:16:14;;;;;;;4.13;3.73;;;5.00;99.90;;;;;;5038550;28;20172;-78
2021/01/10 04:18:40;;;;;;;3.17;2.97;;;5.10;99.90;;;;;;5056665;28;20176;-78
2021/01/10 04:21:06;;;;;;;5.77;4.13;;;5.10;99.90;;;;;;5056532;28;20590;-78
2021/01/10 04:23:31;;;;;;;9.57;4.23;;;5.00;99.90;;;;;;5057099;28;20191;-78
2021/01/10 04:25:57;;;;;;;3.00;2.80;;;5.00;99.90;;;;;;5038340;28;20175;-78
2021/01/10 04:28:22;;;;;;;2.87;2.67;;;4.90;99.90;;;;;;5038677;28;20175;-78
2021/01/10 04:30:48;;;;;;;4.80;3.57;;;4.90;99.90;;;;;;5038259;28;20589;-78
2021/01/10 04:33:14;;;;;;;4.10;3.13;;;4.90;99.90;;;;;;5038418;28;20635;-78
2021/01/10 04:35:39;;;;;;;3.33;3.03;;;4.90;99.90;;;;;;5056860;28;20194;-79
2021/01/10 04:38:05;;;;;;;5.47;5.03;;;4.90;99.90;;;;;;5056906;28;20191;-78
2021/01/10 04:40:30;;;;;;;2.47;2.37;;;4.80;99.90;;;;;;5056577;28;20198;-78
2021/01/10 04:42:56;;;;;;;2.87;2.67;;;4.80;99.90;;;;;;5056894;28;20171;-78
2021/01/10 04:45:22;;;;;;;2.73;2.53;;;4.90;99.90;;;;;;5056888;28;20195;-78
2021/01/10 04:47:48;;;;;;;5.60;4.53;;;4.90;99.90;;;;;;5038901;28;20189;-78
2021/01/10 04:50:15;;;;;;;3.77;3.00;;;4.80;99.90;;;;;;5056581;28;20647;-78
2021/01/10 04:52:42;;;;;;;3.93;3.67;;;4.80;99.90;;;;;;5039211;28;20186;-78
2021/01/10 04:55:08;;;;;;;6.10;3.87;;;4.80;99.90;;;;;;5056713;28;20706;-78
2021/01/10 04:57:34;;;;;;;2.37;2.17;;;4.90;99.90;;;;;;5038936;28;20221;-78
2021/01/10 05:00:10;;;;;;;2.57;2.47;;;4.90;99.90;;;;;;5057173;28;20270;-79
2021/01/10 05:02:49;;;;;;;5.20;2.20;;;4.90;99.90;;;;;;5039310;28;20171;-78
2021/01/10 05:05:15;;;;;;;4.90;2.07;;;5.00;99.90;;;;;;5039421;28;20240;-78
2021/01/10 05:07:44;;;;;;;2.70;2.47;;;5.00;99.90;;;;;;5056888;28;20585;-78
2021/01/10 05:10:10;;;;;;;4.07;3.37;;;5.00;99.90;;;;;;5057306;28;20176;-78
2021/01/10 05:12:36;;;;;;;2.70;2.50;;;5.00;99.90;;;;;;5039448;28;20202;-78
2021/01/10 05:15:01;;;;;;;1.83;1.73;;;5.10;99.90;;;;;;5057575;28;20203;-78
2021/01/10 05:17:27;;;;;;;1.73;1.47;;;5.00;99.90;;;;;;5039883;28;20183;-78
2021/01/10 05:19:54;;;;;;;3.53;1.83;;;5.00;99.90;;;;;;5040031;28;20195;-78
2021/01/10 05:22:20;;;;;;;2.80;2.60;;;5.00;99.90;;;;;;5039823;28;20550;-78
2021/01/10 05:24:49;;;;;;;2.53;2.33;;;4.90;99.90;;;;;;5058027;28;20183;-79
2021/01/10 05:27:15;;;;;;;3.10;2.33;;;4.90;99.90;;;;;;5040162;28;20171;-79
2021/01/10 05:29:45;;;;;;;3.63;2.77;;;4.90;99.90;;;;;;5055380;28;20183;-78
2021/01/10 05:32:11;;;;;;;2.60;2.50;;;4.90;99.90;;;;;;5070994;23;20682;-78
2021/01/10 05:34:37;;;;;;;2.53;2.33;;;4.90;99.90;;;;;;5059359;28;20551;-79
2021/01/10 05:37:13;;;;;;;2.50;2.30;;;4.90;99.90;;;;;;5059803;28;20171;-78
2021/01/10 05:39:44;;;;;;;2.30;2.10;;;4.90;99.90;;;;;;5059690;28;20542;-78
2021/01/10 05:42:10;;;;;;;2.77;2.60;;;4.90;99.90;;;;;;5041329;28;20194;-78
2021/01/10 05:44:38;;;;;;;3.37;2.23;;;4.80;99.90;;;;;;5059345;28;20184;-78
2021/01/10 05:47:06;;;;;;;1.53;1.43;;;4.80;99.90;;;;;;5059406;28;20191;-79
2021/01/10 05:49:32;;;;;;;2.97;2.30;;;4.70;99.90;;;;;;5041925;28;20639;-78
2021/01/10 05:52:07;;;;;;;1.90;1.80;;;4.80;99.90;;;;;;5041511;28;20178;-78
2021/01/10 05:54:41;;;;;;;1.77;1.67;;;4.80;99.90;;;;;;5045751;28;20191;-79
2021/01/10 05:57:15;;;;;;;3.57;3.27;;;4.80;99.90;;;;;;5063157;28;20167;-79
2021/01/10 05:59:49;;;;;;;1.50;1.40;;;4.90;99.90;;;;;;5045260;28;20683;-79
2021/01/10 06:02:27;;;;;;;5.77;3.73;;;4.80;99.90;;;;;;5060940;28;20214;-78
2021/01/10 06:05:13;;;;;;;3.40;3.10;;;4.80;99.90;;;;;;5062337;28;20186;-78
2021/01/10 06:07:40;;;;;;;2.67;2.50;;;4.70;99.90;;;;;;5045083;28;20168;-79
2021/01/10 06:10:07;;;;;;;1.43;1.33;;;4.70;99.90;;;;;;5044549;28;20175;-78
2021/01/10 06:12:33;;;;;;;1.33;1.27;;;4.60;99.90;;;;;;5062923;28;20175;-78
2021/01/10 06:15:16;;;;;;;4.80;2.67;;;4.70;99.90;;;;;;5044778;28;20188;-78
2021/01/10 06:17:50;;;;;;;2.10;2.00;;;4.80;99.90;;;;;;5045085;28;20193;-79
2021/01/10 06:20:25;;;;;;;5.20;2.93;;;4.80;99.90;;;;;;5044621;28;20203;-78
2021/01/10 06:22:51;;;;;;;5.27;2.33;;;4.60;99.90;;;;;;5062945;28;20160;-79
2021/01/10 06:25:22;;;;;;;3.53;3.10;;;4.70;99.90;;;;;;5061938;28;20193;-79
2021/01/10 06:27:55;;;;;;;3.07;2.87;;;4.70;99.90;;;;;;5044103;28;20172;-78
2021/01/10 06:30:26;;;;;;;3.27;2.60;;;4.70;99.90;;;;;;5044280;28;20190;-79
2021/01/10 06:32:58;;;;;;;2.43;2.20;;;4.80;99.90;;;;;;5062293;28;20190;-78
2021/01/10 06:35:25;;;;;;;3.90;3.40;;;4.90;99.90;;;;;;5044975;28;20195;-78
2021/01/10 06:37:55;;;;;;;2.97;1.63;;;4.80;99.90;;;;;;5044383;28;20180;-78
2021/01/10 06:40:24;;;;;;;2.07;1.87;;;4.70;99.90;;;;;;5045009;28;20214;-78
2021/01/10 06:42:54;;;;;;;1.90;1.73;;;4.60;99.90;;;;;;5044688;28;20164;-79
2021/01/10 06:45:20;;;;;;;2.53;2.13;;;4.70;99.90;;;;;;5044510;28;20191;-78
2021/01/10 06:47:53;;;;;;;2.53;2.33;;;4.70;99.90;;;;;;5061676;28;20217;-79
2021/01/10 06:50:20;;;;;;;2.10;2.00;;;4.60;99.90;;;;;;5044952;28;20183;-79
2021/01/10 06:52:47;;;;;;;3.10;2.93;;;4.60;99.90;;;;;;5063137;28;20255;-78
2021/01/10 06:55:16;;;;;;;2.97;2.77;;;4.70;99.90;;;;;;5043956;28;20194;-78
2021/01/10 06:57:42;;;;;;;3.67;3.47;;;4.70;99.90;;;;;;5062287;28;20175;-78
2021/01/10 07:00:11;;;;;;;4.43;4.07;;;4.60;99.90;;;;;;5043538;28;20207;-78
2021/01/10 07:03:13;;;;;;;1.77;1.30;;;4.50;99.90;;;;;;5043275;28;20717;-78
2021/01/10 07:05:58;;;;;;;2.97;2.67;;;4.50;99.90;;;;;;5043842;28;20151;-78
2021/01/10 07:08:30;;;;;;;1.37;1.27;;;4.50;99.90;;;;;;5061654;28;20163;-78
2021/01/10 07:10:56;;;;;;;3.57;2.90;;;4.50;99.90;;;;;;5043200;28;20179;-78
2021/01/10 07:13:24;;;;;;;2.67;2.47;;;4.50;99.90;;;;;;5061646;28;20661;-79
2021/01/10 07:16:16;;;;;;;4.00;2.80;;;4.60;99.90;;;;;;5061294;28;20198;-79
2021/01/10 07:18:59;;;;;;;2.47;2.37;;;4.50;99.90;;;;;;5044012;28;20634;-79
2021/01/10 07:21:31;;;;;;;2.40;2.23;;;4.50;99.90;;;;;;5063863;28;20234;-79
2021/01/10 07:24:26;;;;;;;4.67;4.13;;;4.40;99.90;;;;;;5045244;28;20223;-85
2021/01/10 07:26:56;;;;;;;1.40;1.40;;;4.50;99.90;;;;;;5057488;28;20234;-79
2021/01/10 07:29:28;;;;;;;6.03;5.50;;;4.40;99.90;;;;;;5056873;28;20504;-80
2021/01/10 07:32:15;;;;;;;4.90;4.53;;;4.30;99.90;;;;;;5057297;28;20670;-79
2021/01/10 07:34:46;;;;;;;2.07;1.93;;;4.30;99.90;;;;;;5056611;28;20180;-79
2021/01/10 07:37:15;;;;;;;5.87;3.43;;;4.20;99.90;;;;;;5038748;28;20635;-79
2021/01/10 07:39:49;;;;;;;2.17;2.03;;;4.20;99.90;;;;;;5056879;28;20268;-79
2021/01/10 07:42:17;;;;;;;4.07;3.77;;;4.30;99.90;;;;;;5056338;28;20556;-78
2021/01/10 07:44:49;;;;;;;2.27;2.17;;;4.40;99.90;;;;;;5055904;28;20198;-79
2021/01/10 07:47:16;;;;;;;7.67;3.17;;;4.40;99.90;;;;;;5056244;28;20163;-78
2021/01/10 07:49:52;;;;;;;6.20;5.27;;;4.50;99.90;;;;;;5038103;28;20179;-78
2021/01/10 07:52:41;;;;;;;1.73;1.63;;;4.40;99.90;;;;;;5038494;28;20164;-78
2021/01/10 07:55:22;;;;;;;2.17;2.07;;;4.40;99.90;;;;;;5056957;28;20267;-79
2021/01/10 07:57:59;;;;;;;3.30;2.33;;;4.30;99.90;;;;;;5038178;28;20163;-79
2021/01/10 08:00:31;;;;;;;4.33;4.00;;;4.30;99.90;;;;;;5038485;28;20658;-78
2021/01/10 08:03:07;;;;;;;3.13;2.63;;;4.30;99.90;;;;;;5056337;28;20635;-79
2021/01/10 08:05:41;;;;;;;3.50;3.20;;;4.30;99.90;;;;;;5038125;28;20236;-85
2021/01/10 08:08:13;;;;;;;5.17;2.83;;;4.20;99.90;;;;;;5037471;28;20243;-79
2021/01/10 08:10:52;;;;;;;3.03;2.53;;;4.20;99.90;;;;;;5055497;28;20603;-79
2021/01/10 08:13:31;;;;;;;3.53;3.33;;;4.20;99.90;;;;;;5037254;28;20162;-78
2021/01/10 08:16:01;;;;;;;4.97;2.20;;;4.30;99.90;;;;;;5055026;28;20646;-78
2021/01/10 08:18:37;;;;;;;4.70;4.17;;;4.30;99.90;;;;;;5037712;28;20191;-79
2021/01/10 08:21:14;;;;;;;2.73;2.53;;;4.40;99.90;;;;;;5056049;28;20193;-79
2021/01/10 08:23:41;;;;;;;2.50;2.40;;;4.60;99.90;;;;;;5055893;28;20182;-78
2021/01/10 08:26:14;;;;;;;2.60;2.47;;;4.50;99.90;;;;;;5055795;28;20163;-78
2021/01/10 08:28:42;;;;;;;1.43;1.13;;;4.40;99.90;;;;;;5055663;28;20695;-78
2021/01/10 08:31:12;;;;;;;2.83;2.73;;;4.40;99.90;;;;;;5054662;28;20531;-79
2021/01/10 08:33:38;;;;;;;1.03;0.93;;;4.40;99.90;;;;;;5055765;28;20198;-77
2021/01/10 08:36:18;;;;;;;4.63;4.23;;;4.40;99.90;;;;;;5055440;28;20175;-79
2021/01/10 08:39:03;;;;;;;3.00;2.50;;;4.50;99.90;;;;;;5055674;28;20209;-79
2021/01/10 08:41:38;;;;;;;3.47;1.87;;;4.60;99.90;;;;;;5037985;28;20230;-79
2021/01/10 08:44:09;;;;;;;3.67;2.97;;;4.50;99.90;;;;;;5037890;28;20187;-79
2021/01/10 08:46:38;;;;;;;3.50;2.53;;;4.30;99.90;;;;;;5038189;28;20159;-79
2021/01/10 08:49:03;;;;;;;4.63;4.23;;;4.30;99.90;;;;;;5037510;28;20532;-78
2021/01/10 08:51:50;;;;;;;2.73;2.60;;;4.40;99.90;;;;;;5055252;28;20175;-78
2021/01/10 08:54:17;;;;;;;3.00;1.97;;;4.40;99.90;;;;;;5055816;28;20187;-78
2021/01/10 08:56:45;;;;;;;2.43;2.33;;;4.40;99.90;;;;;;5054600;28;20699;-78
2021/01/10 08:59:11;;;;;;;3.50;3.17;;;4.40;99.90;;;;;;5055108;28;20179;-78
2021/01/10 09:01:38;;;;;;;3.87;3.57;;;4.50;99.90;;;;;;5037131;28;20216;-78
2021/01/10 09:04:09;;;;;;;2.67;2.47;;;4.50;99.90;;;;;;5054982;28;20180;-80
2021/01/10 09:06:43;;;;;;;2.93;2.10;;;4.50;99.90;;;;;;5037456;28;20242;-81
2021/01/10 09:09:30;;;;;;;3.70;3.07;;;4.60;99.90;;;;;;5054744;28;20641;-83
2021/01/10 09:12:13;;;;;;;4.73;3.50;;;4.50;99.90;;;;;;5056682;28;20213;-82
2021/01/10 09:14:43;;;;;;;2.23;2.13;;;4.60;99.90;;;;;;5039055;28;20191;-82
2021/01/10 09:17:12;;;;;;;2.50;1.83;;;4.70;99.90;;;;;;5057624;28;20511;-82
2021/01/10 09:19:38;;;;;;;2.67;2.50;;;4.70;99.90;;;;;;5057625;28;20187;-81
2021/01/10 09:22:04;;;;;;;2.93;2.73;;;4.80;99.90;;;;;;5056996;28;20634;-82
2021/01/10 09:24:31;;;;;;;2.17;2.07;;;4.80;99.90;;;;;;5055847;28;20191;-81
2021/01/10 09:27:08;;;;;;;2.03;1.80;;;4.80;99.90;;;;;;5037943;28;20171;-81
2021/01/10 09:29:34;;;;;;;2.63;1.63;;;4.90;99.90;;;;;;5042391;28;20167;-81
2021/01/10 09:31:59;;;;;;;2.33;2.13;;;4.90;99.90;;;;;;5060528;28;20190;-81
2021/01/10 09:34:26;;;;;;;1.70;1.60;;;4.90;99.90;;;;;;5060205;28;20290;-82
2021/01/10 09:37:06;;;;;;;4.73;2.60;;;4.80;99.90;;;;;;5041876;28;20175;-79
2021/01/10 09:39:39;;;;;;;2.00;1.80;;;4.90;99.90;;;;;;5041037;28;20198;-78
2021/01/10 09:42:04;;;;;;;3.03;2.83;;;4.90;99.90;;;;;;5041091;28;20602;-78
2021/01/10 09:44:32;;;;;;;2.53;2.33;;;4.80;99.90;;;;;;5058508;28;20215;-78
2021/01/10 09:46:58;;;;;;;2.27;2.17;;;4.80;99.90;;;;;;5040889;28;20217;-79
2021/01/10 09:49:30;;;;;;;4.70;4.30;;;4.80;99.90;;;;;;5040587;28;20229;-78
2021/01/10 09:52:00;;;;;;;2.07;1.97;;;4.80;99.90;;;;;;5040482;28;20159;-77
2021/01/10 09:54:33;;;;;;;2.77;2.57;;;4.90;99.90;;;;;;5058394;28;20194;-79
2021/01/10 09:57:00;;;;;;;4.10;2.87;;;5.00;99.90;;;;;;5040293;28;20232;-78
2021/01/10 09:59:41;;;;;;;2.97;2.40;;;4.90;99.90;;;;;;5058798;28;20256;-79
2021/01/10 10:02:16;;;;;;;2.97;2.77;;;4.90;99.90;;;;;;5040522;28;20156;-78
2021/01/10 10:04:46;;;;;;;2.83;2.53;;;5.00;99.90;;;;;;5040046;28;20185;-81
2021/01/10 10:07:33;;;;;;;7.77;1.70;;;5.00;99.90;;;;;;5040665;28;20163;-78
2021/01/10 10:09:59;;;;;;;3.23;2.83;;;5.00;99.90;;;;;;5057726;28;20194;-78
2021/01/10 10:12:25;;;;;;;2.27;2.17;;;5.10;99.90;;;;;;5040493;28;20222;-78
2021/01/10 10:14:56;;;;;;;2.57;2.40;;;5.10;99.90;;;;;;5058048;28;20184;-79
2021/01/10 10:17:30;;;;;;;1.97;1.77;;;5.10;99.90;;;;;;5057837;28;20245;-78
2021/01/10 10:19:56;;;;;;;1.60;1.50;;;5.20;99.90;;;;;;5039828;28;20198;-78
2021/01/10 10:22:33;;;;;;;3.90;2.40;;;5.20;99.90;;;;;;5039862;28;20206;-80
2021/01/10 10:25:00;;;;;;;3.50;2.40;;;5.20;99.90;;;;;;5058409;28;20183;-78
2021/01/10 10:27:28;;;;;;;1.63;1.53;;;5.10;99.90;;;;;;5058717;28;20163;-78
2021/01/10 10:29:53;;;;;;;1.13;1.13;;;5.20;99.90;;;;;;5040658;28;20582;-78
2021/01/10 10:32:19;;;;;;;2.77;2.13;;;5.30;99.90;;;;;;5060579;28;20183;-78
2021/01/10 10:34:45;;;;;;;1.53;1.30;;;5.30;99.90;;;;;;5041911;28;20215;-78
2021/01/10 10:37:10;;;;;;;1.77;1.67;;;5.40;99.90;;;;;;5041346;28;20168;-78
2021/01/10 10:39:37;;;;;;;5.50;2.33;;;5.40;99.90;;;;;;5041134;28;20667;-79
2021/01/10 10:42:03;;;;;;;0.87;0.87;;;5.40;99.90;;;;;;5040872;28;20178;-79
2021/01/10 10:44:30;;;;;;;2.07;1.97;;;5.40;99.90;;;;;;5039493;28;20187;-79
2021/01/10 10:46:56;;;;;;;1.77;1.67;;;5.40;99.90;;;;;;5039687;28;20224;-79
2021/01/10 10:49:22;;;;;;;1.73;1.63;;;5.50;99.90;;;;;;5057277;28;20593;-79
2021/01/10 10:51:47;;;;;;;1.67;1.57;;;5.30;99.90;;;;;;5039747;28;20168;-79
2021/01/10 10:54:14;;;;;;;2.17;1.97;;;5.40;99.90;;;;;;5039490;28;20195;-80
2021/01/10 10:56:41;;;;;;;1.87;1.77;;;5.50;99.90;;;;;;5039770;28;20163;-79
2021/01/10 10:59:07;;;;;;;4.00;2.77;;;5.50;99.90;;;;;;5040049;28;20163;-80
2021/01/10 11:01:39;;;;;;;2.13;2.03;;;5.60;99.90;;;;;;5057053;28;20204;-78
2021/01/10 11:04:05;;;;;;;3.17;1.80;;;5.60;99.90;;;;;;5039264;28;20690;-78
2021/01/10 11:06:30;;;;;;;4.43;2.43;;;5.70;99.90;;;;;;5039332;28;20167;-78
2021/01/10 11:08:56;;;;;;;0.63;0.63;;;5.70;99.90;;;;;;5039763;28;20171;-78
2021/01/10 11:11:21;;;;;;;2.30;2.17;;;5.70;99.90;;;;;;5057396;28;20190;-79
2021/01/10 11:13:47;;;;;;;1.33;1.23;;;5.80;99.90;;;;;;5056964;28;20697;-79
2021/01/10 11:16:12;;;;;;;1.07;1.07;;;5.80;99.90;;;;;;5038612;28;20543;-79
2021/01/10 11:18:38;;;;;;;3.73;2.20;;;5.80;99.90;;;;;;5038899;28;20183;-78
2021/01/10 11:21:04;;;;;;;1.10;1.07;;;5.70;99.90;;;;;;5057010;28;20214;-77
2021/01/10 11:23:30;;;;;;;4.33;3.23;;;5.70;99.90;;;;;;5056467;28;20671;-78
2021/01/10 11:25:56;;;;;;;1.57;1.47;;;5.80;99.90;;;;;;5056904;28;20302;-79
2021/01/10 11:28:21;;;;;;;2.23;2.00;;;5.80;99.90;;;;;;5056571;28;20168;-79
2021/01/10 11:30:47;;;;;;;1.97;1.83;;;5.80;99.90;;;;;;5038785;28;20188;-80
2021/01/10 11:33:12;;;;;;;4.30;1.93;;;5.80;99.90;;;;;;5068613;23;20256;-79
2021/01/10 11:35:39;;;;;;;1.70;1.60;;;5.60;99.90;;;;;;5062215;28;20573;-80
2021/01/10 11:38:04;;;;;;;4.87;2.87;;;5.60;99.90;;;;;;5059987;28;20179;-80
2021/01/10 11:40:30;;;;;;;0.63;0.63;;;5.50;99.90;;;;;;5043744;28;20199;-82
2021/01/10 11:42:55;;;;;;;1.60;1.50;;;5.60;99.90;;;;;;5041831;28;20171;-80
2021/01/10 11:45:21;;;;;;;2.17;2.03;;;5.60;99.90;;;;;;5058932;28;20202;-81
2021/01/10 11:47:46;;;;;;;2.80;1.70;;;5.60;99.90;;;;;;5041526;28;20174;-79
2021/01/10 11:50:12;;;;;;;1.27;1.27;;;5.70;99.90;;;;;;5042068;28;20178;-81
2021/01/10 11:52:38;;;;;;;2.53;0.63;;;5.70;99.90;;;;;;5060570;28;20629;-81
2021/01/10 11:55:04;;;;;;;2.17;1.73;;;5.60;99.90;;;;;;5059208;28;20274;-82
2021/01/10 11:57:29;;;;;;;3.33;3.10;;;5.50;99.90;;;;;;5041343;28;20180;-81
2021/01/10 11:59:55;;;;;;;4.80;1.20;;;5.50;99.90;;;;;;5058529;28;20261;-80
2021/01/10 12:02:20;;;;;;;1.33;1.17;;;5.50;99.90;;;;;;5041595;28;20168;-81
2021/01/10 12:04:46;;;;;;;2.07;1.97;;;5.60;99.90;;;;;;5057884;28;20590;-81
2021/01/10 12:07:11;;;;;;;0.90;0.90;;;5.50;99.90;;;;;;5058774;28;20163;-80
2021/01/10 12:09:37;;;;;;;3.77;1.93;;;5.40;99.90;;;;;;5060028;28;20187;-81
2021/01/10 12:12:03;;;;;;;0.77;0.77;;;5.50;99.90;;;;;;5039412;28;20188;-81
2021/01/10 12:14:29;;;;;;;4.47;2.57;;;5.60;99.90;;;;;;5039074;28;20203;-81
2021/01/10 12:16:54;;;;;;;1.27;1.23;;;5.60;99.90;;;;;;5056771;28;20250;-81
2021/01/10 12:19:21;;;;;;;2.53;2.33;;;5.60;99.90;;;;;;5038666;28;20179;-80
2021/01/10 12:21:48;;;;;;;0.97;0.90;;;5.70;99.90;;;;;;5056338;28;20162;-81
2021/01/10 12:24:14;;;;;;;1.00;1.00;;;5.80;99.90;;;;;;5038712;28;20191;-81
2021/01/10 12:26:39;;;;;;;3.10;1.40;;;5.60;99.90;;;;;;5057060;28;20229;-81
2021/01/10 12:29:05;;;;;;;1.77;1.67;;;5.70;99.90;;;;;;5038282;28;20183;-79
2021/01/10 12:31:30;;;;;;;1.83;1.70;;;5.80;99.90;;;;;;5036837;28;20219;-78
2021/01/10 12:33:56;;;;;;;1.67;1.57;;;5.70;99.90;;;;;;5036692;28;20624;-79
2021/01/10 12:36:24;;;;;;;2.80;2.00;;;5.70;99.90;;;;;;5055000;28;20216;-79
2021/01/10 12:38:49;;;;;;;1.63;1.53;;;5.60;99.90;;;;;;5037209;28;20171;-78
2021/01/10 12:41:15;;;;;;;1.73;0.97;;;5.70;99.90;;;;;;5055766;28;20210;-81
2021/01/10 12:43:40;;;;;;;2.73;2.23;;;5.70;99.90;;;;;;5055225;28;20662;-80
2021/01/10 12:46:06;;;;;;;1.90;0.73;;;5.70;99.90;;;;;;5036885;28;20190;-80
2021/01/10 12:48:31;;;;;;;2.27;1.93;;;5.90;99.90;;;;;;5036736;28;20192;-79
2021/01/10 12:50:57;;;;;;;3.90;1.30;;;6.00;99.90;;;;;;5054819;28;20172;-79
2021/01/10 12:53:22;;;;;;;0.57;0.57;;;6.10;99.90;;;;;;5036663;28;20179;-79
2021/01/10 12:55:51;;;;;;;3.23;2.80;;;6.00;99.90;;;;;;5054793;28;20249;-80
2021/01/10 12:58:17;;;;;;;1.93;1.83;;;6.10;99.90;;;;;;5055683;28;20234;-81
2021/01/10 13:00:43;;;;;;;2.10;2.00;;;6.10;99.90;;;;;;5036586;28;20195;-85
2021/01/10 13:03:08;;;;;;;1.20;1.13;;;6.10;99.90;;;;;;5035976;28;20172;-79
2021/01/10 13:05:34;;;;;;;1.20;1.10;;;6.10;99.90;;;;;;5036507;28;20200;-84